Keoyoung Blue 3 — HO9294 — position and weather

sailwx.info

Track history (hours):
 
Tides and Currents Weather Stations Pressure Air Temp Water Temp Dewpoint Dewpoint Depression Visibility Wind Speed Wind Dir Waves Ship Positions

Keoyoung Blue 3

Last reported at 2017-Oct-22 05:57 UTC. Time now 2017-Oct-22 06:11 UTC.
Position N 34°39' E 135°20'.

Length 71 m; draft 5.2 m.

Type: Tanker. MMSI: 370408000.

Date/timePositionNaut miles runAvg speedWind from/ knotsBaromVisibWave heightAir tempDewpointWater temp
2017-Oct-22 05:57N 34°39' E 135°20'0 0.0
2017-Oct-22 05:27N 34°39' E 135°20'0 0.0
2017-Oct-22 04:57N 34°39' E 135°20'0 0.1
2017-Oct-22 04:27N 34°39' E 135°20'0 0.1
2017-Oct-22 03:57N 34°39' E 135°20'1 2.9
2017-Oct-22 03:30N 34°39' E 135°22'3 6.5
2017-Oct-22 03:00N 34°40' E 135°25'0 0.0
2017-Oct-22 02:20N 34°40' E 135°25'0 0.0
2017-Oct-22 01:50N 34°40' E 135°25'0 0.0
2017-Oct-22 01:26N 34°40' E 135°25'0 0.0
2017-Oct-22 00:38N 34°40' E 135°25'0 0.0
2017-Oct-22 00:08N 34°40' E 135°25'0 0.0
2017-Oct-21 23:50N 34°40' E 135°25'0 0.0
2017-Oct-21 23:26N 34°40' E 135°25'0 0.0
2017-Oct-21 22:50N 34°40' E 135°25'0 0.1
2017-Oct-21 22:30N 34°40' E 135°25'1 2.8
2017-Oct-21 22:00N 34°39' E 135°24'3 5.2
2017-Oct-21 21:30N 34°37' E 135°22'0 0.2
2017-Oct-21 20:58N 34°37' E 135°22'0 0.0
2017-Oct-21 20:20N 34°37' E 135°22'0 0.0
2017-Oct-21 19:56N 34°37' E 135°22'0 0.0
2017-Oct-21 19:26N 34°37' E 135°22'0 0.0
2017-Oct-21 18:55N 34°37' E 135°22'0 0.0
2017-Oct-21 18:25N 34°37' E 135°22'0 0.0
2017-Oct-21 17:56N 34°37' E 135°22'3 5.7
2017-Oct-21 17:29N 34°36' E 135°19'611.6
2017-Oct-21 17:00N 34°35' E 135°13'612.3
2017-Oct-21 16:30N 34°35' E 135°05'713.7
2017-Oct-21 16:00N 34°36' E 134°57'  
2017-Oct-18 15:14N 31°01' E 122°23'412.0
2017-Oct-18 14:53N 31°02' E 122°18'910.2
2017-Oct-18 14:00N 31°03' E 122°08'510.2
2017-Oct-18 13:31N 31°05' E 122°02'5 9.8
2017-Oct-18 13:00N 31°07' E 121°57'5 9.6
2017-Oct-18 12:30N 31°09' E 121°52'511.0
2017-Oct-18 12:00N 31°13' E 121°48'713.3
2017-Oct-18 11:31N 31°18' E 121°43'611.6
2017-Oct-18 11:00N 31°22' E 121°37'611.5
2017-Oct-18 10:30N 31°25' E 121°31'510.1
2017-Oct-18 10:00N 31°28' E 121°27'611.8
2017-Oct-18 09:30N 31°32' E 121°21'612.7
2017-Oct-18 09:00N 31°36' E 121°17'814.7
2017-Oct-18 08:27N 31°42' E 121°09'3711.4
2017-Oct-18 05:14N 32°01' E 120°32'  
2017-Oct-13 10:14N 31°47' E 121°00'310.0
2017-Oct-13 09:58N 31°46' E 121°03'610.9
2017-Oct-13 09:23N 31°42' E 121°09'411.2
2017-Oct-13 09:00N 31°40' E 121°13'510.8
2017-Oct-13 08:30N 31°36' E 121°17'510.7
2017-Oct-13 08:00N 31°32' E 121°22'510.9
2017-Oct-13 07:31N 31°29' E 121°27'5 9.8
2017-Oct-13 07:01N 31°25' E 121°31'4 7.5
2017-Oct-13 06:30N 31°23' E 121°35'4 8.8
2017-Oct-13 06:00N 31°21' E 121°39'510.4
2017-Oct-13 05:31N 31°18' E 121°44'611.9
2017-Oct-13 05:00N 31°13' E 121°48'611.7
2017-Oct-13 04:31N 31°09' E 121°53'611.0
2017-Oct-13 04:00N 31°06' E 121°58'5 9.5
2017-Oct-13 03:30N 31°04' E 122°04'4 8.3
2017-Oct-13 03:00N 31°03' E 122°08'4 7.8
2017-Oct-13 02:30N 31°03' E 122°13'5 9.5
2017-Oct-13 02:00N 31°02' E 122°18'5 9.6
2017-Oct-13 01:28N 31°01' E 122°24'6 9.1
2017-Oct-13 00:50N 31°00' E 122°31'8 0.7
2017-Oct-12 14:16N 31°01' E 122°22'312.2
2017-Oct-12 14:00N 31°02' E 122°18'612.5
2017-Oct-12 13:30N 31°03' E 122°11'713.3
2017-Oct-12 13:01N 31°04' E 122°04'713.8
2017-Oct-12 12:30N 31°07' E 121°56'715.1
2017-Oct-12 12:00N 31°12' E 121°49'714.6
2017-Oct-12 11:31N 31°17' E 121°44'612.7
2017-Oct-12 11:00N 31°22' E 121°38'611.8
2017-Oct-12 10:31N 31°24' E 121°32'5 9.6
2017-Oct-12 10:01N 31°27' E 121°28'5 9.1
2017-Oct-12 09:31N 31°30' E 121°24'611.7
2017-Oct-12 09:01N 31°34' E 121°19'612.0
2017-Oct-12 08:30N 31°39' E 121°14'611.1
2017-Oct-12 08:00N 31°42' E 121°09'  
Track history (hours):
 
Tides and Currents Weather Stations Pressure Air Temp Water Temp Dewpoint Dewpoint Depression Visibility Wind Speed Wind Dir Waves Ship Positions

Keoyoung Blue 3

Last reported at 2017-Oct-22 05:57 UTC. Time now 2017-Oct-22 06:11 UTC.
Position N 34°39' E 135°20'.

Length 71 m; draft 5.2 m.

Type: Tanker. MMSI: 370408000.

Date/timePositionNaut miles runAvg speedWind from/ knotsBaromVisibWave heightAir tempDewpointWater temp
2017-Oct-22 05:57N 34°39' E 135°20'0 0.0
2017-Oct-22 05:27N 34°39' E 135°20'0 0.0
2017-Oct-22 04:57N 34°39' E 135°20'0 0.1
2017-Oct-22 04:27N 34°39' E 135°20'0 0.1
2017-Oct-22 03:57N 34°39' E 135°20'1 2.9
2017-Oct-22 03:30N 34°39' E 135°22'3 6.5
2017-Oct-22 03:00N 34°40' E 135°25'0 0.0
2017-Oct-22 02:20N 34°40' E 135°25'0 0.0
2017-Oct-22 01:50N 34°40' E 135°25'0 0.0
2017-Oct-22 01:26N 34°40' E 135°25'0 0.0
2017-Oct-22 00:38N 34°40' E 135°25'0 0.0
2017-Oct-22 00:08N 34°40' E 135°25'0 0.0
2017-Oct-21 23:50N 34°40' E 135°25'0 0.0
2017-Oct-21 23:26N 34°40' E 135°25'0 0.0
2017-Oct-21 22:50N 34°40' E 135°25'0 0.1
2017-Oct-21 22:30N 34°40' E 135°25'1 2.8
2017-Oct-21 22:00N 34°39' E 135°24'3 5.2
2017-Oct-21 21:30N 34°37' E 135°22'0 0.2
2017-Oct-21 20:58N 34°37' E 135°22'0 0.0
2017-Oct-21 20:20N 34°37' E 135°22'0 0.0
2017-Oct-21 19:56N 34°37' E 135°22'0 0.0
2017-Oct-21 19:26N 34°37' E 135°22'0 0.0
2017-Oct-21 18:55N 34°37' E 135°22'0 0.0
2017-Oct-21 18:25N 34°37' E 135°22'0 0.0
2017-Oct-21 17:56N 34°37' E 135°22'3 5.7
2017-Oct-21 17:29N 34°36' E 135°19'611.6
2017-Oct-21 17:00N 34°35' E 135°13'612.3
2017-Oct-21 16:30N 34°35' E 135°05'713.7
2017-Oct-21 16:00N 34°36' E 134°57'  
2017-Oct-18 15:14N 31°01' E 122°23'412.0
2017-Oct-18 14:53N 31°02' E 122°18'910.2
2017-Oct-18 14:00N 31°03' E 122°08'510.2
2017-Oct-18 13:31N 31°05' E 122°02'5 9.8
2017-Oct-18 13:00N 31°07' E 121°57'5 9.6
2017-Oct-18 12:30N 31°09' E 121°52'511.0
2017-Oct-18 12:00N 31°13' E 121°48'713.3
2017-Oct-18 11:31N 31°18' E 121°43'611.6
2017-Oct-18 11:00N 31°22' E 121°37'611.5
2017-Oct-18 10:30N 31°25' E 121°31'510.1
2017-Oct-18 10:00N 31°28' E 121°27'611.8
2017-Oct-18 09:30N 31°32' E 121°21'612.7
2017-Oct-18 09:00N 31°36' E 121°17'814.7
2017-Oct-18 08:27N 31°42' E 121°09'3711.4
2017-Oct-18 05:14N 32°01' E 120°32'  
2017-Oct-13 10:14N 31°47' E 121°00'310.0
2017-Oct-13 09:58N 31°46' E 121°03'610.9
2017-Oct-13 09:23N 31°42' E 121°09'411.2
2017-Oct-13 09:00N 31°40' E 121°13'510.8
2017-Oct-13 08:30N 31°36' E 121°17'510.7
2017-Oct-13 08:00N 31°32' E 121°22'510.9
2017-Oct-13 07:31N 31°29' E 121°27'5 9.8
2017-Oct-13 07:01N 31°25' E 121°31'4 7.5
2017-Oct-13 06:30N 31°23' E 121°35'4 8.8
2017-Oct-13 06:00N 31°21' E 121°39'510.4
2017-Oct-13 05:31N 31°18' E 121°44'611.9
2017-Oct-13 05:00N 31°13' E 121°48'611.7
2017-Oct-13 04:31N 31°09' E 121°53'611.0
2017-Oct-13 04:00N 31°06' E 121°58'5 9.5
2017-Oct-13 03:30N 31°04' E 122°04'4 8.3
2017-Oct-13 03:00N 31°03' E 122°08'4 7.8
2017-Oct-13 02:30N 31°03' E 122°13'5 9.5
2017-Oct-13 02:00N 31°02' E 122°18'5 9.6
2017-Oct-13 01:28N 31°01' E 122°24'6 9.1
2017-Oct-13 00:50N 31°00' E 122°31'8 0.7
2017-Oct-12 14:16N 31°01' E 122°22'312.2
2017-Oct-12 14:00N 31°02' E 122°18'612.5
2017-Oct-12 13:30N 31°03' E 122°11'713.3
2017-Oct-12 13:01N 31°04' E 122°04'713.8
2017-Oct-12 12:30N 31°07' E 121°56'715.1
2017-Oct-12 12:00N 31°12' E 121°49'714.6
2017-Oct-12 11:31N 31°17' E 121°44'612.7
2017-Oct-12 11:00N 31°22' E 121°38'611.8
2017-Oct-12 10:31N 31°24' E 121°32'5 9.6
2017-Oct-12 10:01N 31°27' E 121°28'5 9.1
2017-Oct-12 09:31N 31°30' E 121°24'611.7
2017-Oct-12 09:01N 31°34' E 121°19'612.0
2017-Oct-12 08:30N 31°39' E 121°14'611.1
2017-Oct-12 08:00N 31°42' E 121°09'  

Dump ship's entire track history